Time;durP1;ratioP1;P1;durP2;ratioP2;P2;SDS_P1;SDS_P2;PMS_P1;PMS_P2;Temp;Humidity;BMP_temperature;BMP_pressure;BME280_temperature;BME280_humidity;BME280_pressure;Samples;Min_cycle;Max_cycle;Signal;HPM_P1;HPM_P2
2023/07/15 00:01:23;;;;;;;9.10;5.03;;;19.20;99.90;;;;;;5028746;28;20033;-59
2023/07/15 00:03:49;;;;;;;8.05;5.18;;;19.20;99.90;;;;;;5047059;28;20052;-60
2023/07/15 00:06:16;;;;;;;5.50;4.30;;;19.30;99.90;;;;;;5048326;28;20044;-59
2023/07/15 00:08:42;;;;;;;5.45;4.47;;;19.30;99.90;;;;;;5026892;28;20036;-59
2023/07/15 00:11:28;;;;;;;7.63;4.40;;;19.30;99.90;;;;;;5044282;28;20037;-59
2023/07/15 00:13:56;;;;;;;6.82;4.80;;;19.40;99.90;;;;;;5053837;28;20038;-59
2023/07/15 00:16:22;;;;;;;7.15;4.57;;;19.40;99.90;;;;;;5060372;28;20040;-59
2023/07/15 00:18:48;;;;;;;6.50;4.20;;;19.30;99.90;;;;;;5046387;28;20232;-59
2023/07/15 00:21:23;;;;;;;5.72;3.90;;;19.30;99.90;;;;;;5046879;28;20090;-59
2023/07/15 00:23:57;;;;;;;12.38;5.03;;;19.40;99.90;;;;;;5026513;28;20483;-59
2023/07/15 00:26:23;;;;;;;;;;;19.40;99.90;;;;;;5041988;28;20519;-59
2023/07/15 00:28:50;;;;;;;5.97;4.45;;;19.40;99.90;;;;;;5062993;28;20571;-59
2023/07/15 00:31:17;;;;;;;6.55;4.47;;;19.40;99.90;;;;;;5047584;28;20032;-59
2023/07/15 00:33:44;;;;;;;6.45;4.65;;;19.40;99.90;;;;;;5047582;28;20102;-59
2023/07/15 00:36:11;;;;;;;9.15;5.40;;;19.40;99.90;;;;;;5046628;28;20049;-59
2023/07/15 00:38:38;;;;;;;9.20;5.05;;;19.40;99.90;;;;;;5048886;28;20414;-59
2023/07/15 00:41:11;;;;;;;4.70;4.03;;;19.50;99.90;;;;;;5069633;28;20032;-59
2023/07/15 00:43:58;;;;;;;;;;;19.50;99.90;;;;;;5034725;28;20044;-59
2023/07/15 00:47:02;;;;;;;6.40;4.20;;;19.50;99.90;;;;;;5054742;28;19925;-59
2023/07/15 00:49:34;;;;;;;8.23;4.68;;;19.50;99.90;;;;;;5038167;28;20059;-59
2023/07/15 00:52:09;;;;;;;6.13;4.20;;;19.50;99.90;;;;;;5025396;28;20032;-59
2023/07/15 00:54:44;;;;;;;7.80;4.50;;;19.50;99.90;;;;;;5061354;28;20063;-59
2023/07/15 00:57:12;;;;;;;7.80;4.18;;;19.60;99.90;;;;;;5038359;28;20048;-59
2023/07/15 00:59:39;;;;;;;5.68;3.78;;;19.60;99.90;;;;;;5027833;28;20051;-59
2023/07/15 01:02:06;;;;;;;6.28;4.13;;;19.60;99.90;;;;;;5026456;28;20099;-60
2023/07/15 01:04:32;;;;;;;7.20;3.50;;;19.60;99.90;;;;;;5041427;28;20047;-59
2023/07/15 01:06:58;;;;;;;7.15;4.00;;;19.60;99.90;;;;;;5029201;28;20032;-59
2023/07/15 01:09:24;;;;;;;7.15;4.13;;;19.60;99.90;;;;;;5046355;28;20399;-59
2023/07/15 01:11:50;;;;;;;8.90;3.63;;;19.60;99.90;;;;;;5049112;28;20500;-59
2023/07/15 01:14:16;;;;;;;9.10;3.55;;;19.60;99.90;;;;;;5043992;28;20040;-59
2023/07/15 01:16:42;;;;;;;6.00;3.28;;;19.70;99.90;;;;;;5043926;28;20059;-59
2023/07/15 01:19:08;;;;;;;4.85;3.22;;;19.70;99.90;;;;;;5044772;28;20036;-60
2023/07/15 01:21:35;;;;;;;9.02;3.90;;;19.70;99.90;;;;;;5047381;28;20040;-59
2023/07/15 01:24:07;;;;;;;9.07;3.28;;;19.70;99.90;;;;;;5059324;28;20040;-59
2023/07/15 01:26:33;;;;;;;4.38;3.30;;;19.80;99.90;;;;;;5044752;28;20133;-60
2023/07/15 01:28:59;;;;;;;5.68;3.20;;;19.90;99.90;;;;;;5041025;28;20037;-59
2023/07/15 01:31:26;;;;;;;5.00;3.10;;;19.90;99.90;;;;;;5028251;28;20249;-59
2023/07/15 01:33:52;;;;;;;5.53;3.30;;;19.90;99.90;;;;;;5031701;28;20165;-60
2023/07/15 01:36:18;;;;;;;4.82;3.45;;;20.00;99.90;;;;;;5048398;28;20119;-60
2023/07/15 01:38:44;;;;;;;5.97;3.13;;;20.00;99.90;;;;;;5044761;28;20044;-60
2023/07/15 01:41:09;;;;;;;7.18;3.63;;;20.00;99.90;;;;;;5032441;28;20040;-59
2023/07/15 01:43:35;;;;;;;6.38;3.60;;;20.10;99.90;;;;;;5041887;28;20102;-59
2023/07/15 01:46:01;;;;;;;4.75;3.10;;;20.10;99.90;;;;;;5030885;28;20511;-59
2023/07/15 01:48:27;;;;;;;6.18;3.58;;;20.10;99.90;;;;;;5050187;28;20083;-60
2023/07/15 01:50:52;;;;;;;6.22;3.20;;;20.00;99.90;;;;;;5043389;28;20037;-59
2023/07/15 01:53:18;;;;;;;7.45;3.85;;;20.10;99.90;;;;;;5051833;28;20080;-59
2023/07/15 01:55:44;;;;;;;6.65;3.83;;;20.00;99.90;;;;;;5042063;28;20090;-60
2023/07/15 01:58:10;;;;;;;5.32;3.20;;;20.00;99.90;;;;;;5045773;28;20044;-60
2023/07/15 02:00:35;;;;;;;7.65;3.15;;;20.00;99.90;;;;;;5028136;28;20506;-59
2023/07/15 02:03:01;;;;;;;6.38;3.38;;;20.00;99.90;;;;;;5029262;28;20086;-59
2023/07/15 02:05:27;;;;;;;4.30;2.80;;;20.00;99.90;;;;;;5042187;28;20048;-59
2023/07/15 02:07:53;;;;;;;6.07;3.28;;;20.00;99.90;;;;;;5033572;28;20502;-59
2023/07/15 02:10:18;;;;;;;6.10;2.95;;;20.10;99.90;;;;;;5049152;28;20047;-59
2023/07/15 02:12:44;;;;;;;6.97;3.55;;;20.10;99.90;;;;;;5041705;28;20052;-59
2023/07/15 02:15:10;;;;;;;5.47;3.10;;;20.10;99.90;;;;;;5040074;28;20574;-59
2023/07/15 02:17:36;;;;;;;5.75;3.17;;;20.10;99.90;;;;;;5048948;28;20056;-59
2023/07/15 02:20:04;;;;;;;4.50;2.72;;;20.20;99.90;;;;;;5028739;28;20327;-59
2023/07/15 02:22:30;;;;;;;6.93;3.15;;;20.20;99.90;;;;;;5015407;28;20052;-58
2023/07/15 02:24:56;;;;;;;6.45;2.90;;;20.20;99.90;;;;;;5009016;28;20181;-59
2023/07/15 02:27:22;;;;;;;4.82;3.00;;;20.20;99.90;;;;;;5041500;28;20047;-59
2023/07/15 02:29:47;;;;;;;5.55;2.70;;;20.20;99.90;;;;;;5010531;28;20032;-59
2023/07/15 02:32:15;;;;;;;4.00;2.60;;;20.30;99.90;;;;;;5046997;28;20033;-59
2023/07/15 02:34:41;;;;;;;4.78;2.92;;;20.30;99.90;;;;;;5044795;28;20056;-59
2023/07/15 02:37:06;;;;;;;6.82;3.00;;;20.30;99.90;;;;;;5049724;28;20044;-59
2023/07/15 02:39:34;;;;;;;4.45;2.70;;;20.30;99.90;;;;;;5043010;28;20600;-59
2023/07/15 02:42:00;;;;;;;5.63;3.08;;;20.40;99.90;;;;;;5043176;28;20041;-60
2023/07/15 02:44:27;;;;;;;6.43;3.22;;;20.30;99.90;;;;;;5045915;28;20116;-59
2023/07/15 02:46:53;;;;;;;8.43;3.55;;;20.30;99.90;;;;;;5068383;28;20047;-59
2023/07/15 02:49:18;;;;;;;5.60;3.08;;;20.40;99.90;;;;;;5047110;28;20049;-60
2023/07/15 02:51:44;;;;;;;10.23;3.10;;;20.30;99.90;;;;;;5052640;28;20040;-59
2023/07/15 02:54:10;;;;;;;4.97;3.22;;;20.40;99.90;;;;;;5037353;28;20048;-59
2023/07/15 02:56:36;;;;;;;8.27;3.15;;;20.30;99.90;;;;;;5049444;28;20046;-59
2023/07/15 02:59:02;;;;;;;4.93;3.20;;;20.30;99.90;;;;;;5049576;28;20040;-59
2023/07/15 03:01:27;;;;;;;7.75;2.78;;;20.30;99.90;;;;;;5065125;28;20051;-59
2023/07/15 03:03:53;;;;;;;7.43;3.08;;;20.40;99.90;;;;;;5031802;28;20044;-59
2023/07/15 03:06:19;;;;;;;5.80;2.83;;;20.30;99.90;;;;;;5046422;28;20048;-59
2023/07/15 03:08:45;;;;;;;4.60;2.80;;;20.40;99.90;;;;;;5051677;28;20420;-59
2023/07/15 03:11:11;;;;;;;4.75;3.30;;;20.30;99.90;;;;;;5053456;28;20082;-59
2023/07/15 03:13:37;;;;;;;6.75;3.10;;;20.30;99.90;;;;;;5057466;28;20039;-59
2023/07/15 03:16:04;;;;;;;5.82;2.90;;;20.30;99.90;;;;;;5049621;28;20044;-59
2023/07/15 03:18:29;;;;;;;5.68;3.03;;;20.30;99.90;;;;;;5027827;28;20040;-59
2023/07/15 03:20:56;;;;;;;6.13;3.10;;;20.20;99.90;;;;;;5039911;28;20606;-59
2023/07/15 03:23:22;;;;;;;8.50;3.15;;;20.20;99.90;;;;;;5045799;28;20393;-59
2023/07/15 03:25:48;;;;;;;5.95;2.95;;;20.20;99.90;;;;;;5033894;28;20049;-59
2023/07/15 03:28:14;;;;;;;5.38;2.90;;;20.10;99.90;;;;;;5052803;28;20050;-59
2023/07/15 03:30:39;;;;;;;7.15;3.25;;;20.10;99.90;;;;;;5027764;28;20675;-59
2023/07/15 03:33:05;;;;;;;5.13;2.85;;;20.10;99.90;;;;;;5043940;28;20047;-59
2023/07/15 03:35:31;;;;;;;5.35;3.10;;;20.00;99.90;;;;;;5029399;28;20128;-59
2023/07/15 03:37:57;;;;;;;7.53;3.15;;;20.10;99.90;;;;;;5067608;28;20048;-59
2023/07/15 03:40:23;;;;;;;5.90;3.00;;;20.00;99.90;;;;;;5049685;28;20043;-59
2023/07/15 03:42:49;;;;;;;6.10;3.35;;;20.00;99.90;;;;;;5027922;28;20132;-59
2023/07/15 03:45:44;;;;;;;7.15;3.30;;;20.00;99.90;;;;;;5027487;28;20737;-59
2023/07/15 03:48:11;;;;;;;6.60;2.78;;;19.90;99.90;;;;;;5068325;28;20036;-59
2023/07/15 03:50:36;;;;;;;5.05;2.78;;;19.90;99.90;;;;;;5048423;28;20036;-59
2023/07/15 03:53:02;;;;;;;5.05;3.30;;;19.90;99.90;;;;;;5036056;28;20484;-59
2023/07/15 03:55:29;;;;;;;6.45;3.10;;;19.80;99.90;;;;;;5057657;28;20052;-60
2023/07/15 03:57:55;;;;;;;7.28;3.08;;;19.80;99.90;;;;;;5032620;28;20119;-59
2023/07/15 04:00:21;;;;;;;6.95;3.10;;;19.80;99.90;;;;;;5047805;28;20119;-59
2023/07/15 04:02:53;;;;;;;5.00;3.05;;;19.70;99.90;;;;;;5047714;28;20126;-59
2023/07/15 04:05:18;;;;;;;6.28;3.35;;;19.70;99.90;;;;;;5029954;28;20045;-59
2023/07/15 04:07:44;;;;;;;6.07;2.83;;;19.70;99.90;;;;;;5046595;28;20434;-59
2023/07/15 04:10:11;;;;;;;6.25;3.53;;;19.70;99.90;;;;;;5045616;28;20036;-59
2023/07/15 04:12:36;;;;;;;5.13;3.50;;;19.70;99.90;;;;;;5023487;28;20076;-59
2023/07/15 04:15:03;;;;;;;6.22;3.47;;;19.60;99.90;;;;;;5057655;28;20072;-59
2023/07/15 04:17:28;;;;;;;6.63;2.95;;;19.60;99.90;;;;;;5028525;28;20235;-59
2023/07/15 04:19:54;;;;;;;6.53;3.10;;;19.60;99.90;;;;;;5049200;28;20119;-59
2023/07/15 04:22:20;;;;;;;7.53;3.17;;;19.60;99.90;;;;;;5043019;28;20048;-59
2023/07/15 04:24:45;;;;;;;4.35;3.20;;;19.60;99.90;;;;;;5048508;28;20037;-60
2023/07/15 04:27:11;;;;;;;4.28;2.97;;;19.60;99.90;;;;;;5060827;28;20170;-59
2023/07/15 04:29:37;;;;;;;6.88;3.33;;;19.50;99.90;;;;;;5046084;28;20032;-59
2023/07/15 04:32:03;;;;;;;4.38;3.42;;;19.50;99.90;;;;;;5043145;28;20487;-59
2023/07/15 04:34:28;;;;;;;5.90;3.28;;;19.60;99.90;;;;;;5046765;28;20040;-59
2023/07/15 04:36:54;;;;;;;4.60;3.38;;;19.60;99.90;;;;;;5042329;28;20041;-59
2023/07/15 04:39:20;;;;;;;9.43;3.70;;;19.60;99.90;;;;;;5041277;28;20122;-59
2023/07/15 04:41:45;;;;;;;6.57;3.53;;;19.60;99.90;;;;;;5028372;28;20066;-59
2023/07/15 04:44:11;;;;;;;5.78;3.58;;;19.60;99.90;;;;;;5054768;28;20072;-59
2023/07/15 04:46:37;;;;;;;6.75;3.60;;;19.60;99.90;;;;;;5044296;28;20041;-59
2023/07/15 04:49:03;;;;;;;6.68;3.70;;;19.60;99.90;;;;;;5045739;28;20062;-59
2023/07/15 04:51:28;;;;;;;7.63;3.83;;;19.60;99.90;;;;;;5049328;28;20044;-60
2023/07/15 04:53:56;;;;;;;5.30;3.50;;;19.60;99.90;;;;;;5022556;28;20528;-59
2023/07/15 04:56:22;;;;;;;5.63;3.42;;;19.60;99.90;;;;;;5059821;28;20106;-59
2023/07/15 04:58:48;;;;;;;6.82;4.22;;;19.70;99.90;;;;;;5047989;28;20105;-59
2023/07/15 05:01:13;;;;;;;7.90;3.75;;;19.70;99.90;;;;;;5029642;28;20103;-59
2023/07/15 05:03:40;;;;;;;5.22;3.83;;;19.70;99.90;;;;;;5034229;28;20040;-59
2023/07/15 05:06:06;;;;;;;7.05;3.63;;;19.70;99.90;;;;;;5061235;28;20412;-59
2023/07/15 05:08:31;;;;;;;7.18;3.90;;;19.70;99.90;;;;;;5039430;28;20037;-59
2023/07/15 05:10:57;;;;;;;7.88;4.18;;;19.80;99.90;;;;;;5058132;28;20078;-59
2023/07/15 05:13:24;;;;;;;9.32;4.45;;;19.80;99.90;;;;;;5029156;28;20523;-59
2023/07/15 05:15:50;;;;;;;8.05;4.30;;;19.90;99.90;;;;;;5046462;28;21141;-59
2023/07/15 05:18:15;;;;;;;7.13;4.15;;;19.90;99.90;;;;;;5047171;28;20051;-59
2023/07/15 05:20:41;;;;;;;8.70;4.63;;;20.00;99.90;;;;;;5061815;28;20254;-59
2023/07/15 05:23:07;;;;;;;6.15;4.45;;;20.00;99.90;;;;;;5027896;28;20424;-59
2023/07/15 05:25:33;;;;;;;7.35;4.47;;;20.10;99.90;;;;;;5041384;28;20491;-59
2023/07/15 05:27:59;;;;;;;5.78;3.80;;;20.10;99.90;;;;;;5065743;28;20041;-59
2023/07/15 05:30:25;;;;;;;8.35;4.15;;;20.20;99.90;;;;;;5044852;28;20570;-59
2023/07/15 05:32:54;;;;;;;7.18;4.72;;;20.30;99.90;;;;;;5040978;28;20040;-59
2023/07/15 05:35:22;;;;;;;5.35;4.10;;;20.30;99.90;;;;;;5042648;28;20135;-59
2023/07/15 05:37:57;;;;;;;5.55;4.22;;;20.40;99.90;;;;;;5041555;28;20122;-59
2023/07/15 05:40:25;;;;;;;6.25;4.63;;;20.50;99.90;;;;;;5019147;28;20140;-59
2023/07/15 05:42:57;;;;;;;6.22;4.32;;;20.50;99.90;;;;;;5050284;28;20526;-59
2023/07/15 05:45:26;;;;;;;7.97;4.28;;;20.50;99.90;;;;;;5033226;28;20053;-59
2023/07/15 05:47:51;;;;;;;6.15;4.53;;;20.50;99.90;;;;;;5039158;28;20052;-59
2023/07/15 05:50:17;;;;;;;6.82;5.00;;;20.50;99.90;;;;;;5057367;28;20488;-59
2023/07/15 05:52:43;;;;;;;8.20;4.07;;;20.60;99.90;;;;;;5043041;28;20040;-59
2023/07/15 05:55:12;;;;;;;8.65;4.72;;;20.70;99.90;;;;;;5052434;28;20067;-59
2023/07/15 05:57:43;;;;;;;7.53;4.40;;;20.70;99.90;;;;;;5046027;28;20113;-59
2023/07/15 06:00:10;;;;;;;8.75;4.70;;;20.90;99.90;;;;;;5044414;28;20488;-59
2023/07/15 06:02:38;;;;;;;6.82;4.25;;;20.90;99.90;;;;;;5036518;28;20468;-59
2023/07/15 06:05:04;;;;;;;6.97;4.35;;;21.10;99.90;;;;;;5040981;28;20163;-60
2023/07/15 06:07:30;;;;;;;8.02;4.75;;;21.10;99.90;;;;;;5042914;28;20079;-59
2023/07/15 06:09:56;;;;;;;7.40;4.18;;;21.10;99.90;;;;;;5021408;28;20498;-59
2023/07/15 06:12:22;;;;;;;6.78;4.03;;;21.10;99.90;;;;;;5029410;28;20137;-60
2023/07/15 06:14:48;;;;;;;7.40;3.85;;;21.10;99.90;;;;;;5027195;28;20036;-59
2023/07/15 06:17:14;;;;;;;6.65;4.10;;;21.20;99.90;;;;;;5049597;28;20036;-59
2023/07/15 06:19:40;;;;;;;10.07;4.28;;;21.30;99.90;;;;;;5032278;28;20024;-59
2023/07/15 06:22:05;;;;;;;9.05;3.97;;;21.40;99.90;;;;;;5048158;28;20048;-60
2023/07/15 06:24:31;;;;;;;5.78;3.95;;;21.50;99.90;;;;;;5040410;28;20119;-60
2023/07/15 06:27:09;;;;;;;5.75;4.00;;;21.50;99.90;;;;;;5063022;28;20530;-60
2023/07/15 06:29:35;;;;;;;5.20;4.05;;;21.60;99.90;;;;;;5043547;28;20040;-59
2023/07/15 06:32:01;;;;;;;6.18;4.43;;;21.70;99.90;;;;;;5065311;28;20040;-60
2023/07/15 06:34:27;;;;;;;7.18;4.28;;;21.80;99.90;;;;;;5057525;28;20131;-60
2023/07/15 06:36:53;;;;;;;5.05;3.80;;;22.00;99.90;;;;;;5054843;28;20052;-60
2023/07/15 06:39:18;;;;;;;5.60;3.00;;;22.10;99.90;;;;;;5035241;28;20048;-59
2023/07/15 06:41:44;;;;;;;5.00;2.60;;;22.10;99.90;;;;;;5038557;28;20098;-60
2023/07/15 06:44:10;;;;;;;4.93;2.40;;;22.20;99.90;;;;;;5037341;28;20102;-60
2023/07/15 06:46:35;;;;;;;5.50;2.67;;;22.20;99.90;;;;;;5027995;28;20041;-60
2023/07/15 06:49:01;;;;;;;4.22;2.35;;;22.30;99.90;;;;;;5036060;28;20506;-60
2023/07/15 06:51:27;;;;;;;5.55;2.20;;;22.40;99.90;;;;;;5034972;28;20523;-60
2023/07/15 06:53:53;;;;;;;5.70;2.80;;;22.40;99.90;;;;;;5054200;28;20041;-60
2023/07/15 06:56:18;;;;;;;4.55;2.38;;;22.40;99.90;;;;;;5042185;28;20053;-60
2023/07/15 06:58:44;;;;;;;7.68;3.13;;;22.30;99.90;;;;;;5057256;28;20162;-59
2023/07/15 07:01:10;;;;;;;4.50;2.35;;;22.40;99.90;;;;;;5054197;28;20216;-59
2023/07/15 07:03:35;;;;;;;3.95;2.70;;;22.40;99.90;;;;;;5036217;28;20036;-59
2023/07/15 07:06:04;;;;;;;5.32;2.50;;;22.40;99.90;;;;;;5035156;28;20037;-59
2023/07/15 07:08:30;;;;;;;5.38;2.90;;;22.40;99.90;;;;;;5001669;28;20388;-60
2023/07/15 07:10:56;;;;;;;5.68;2.90;;;22.30;99.90;;;;;;5051900;28;20045;-59
2023/07/15 07:13:21;;;;;;;4.35;3.00;;;22.30;99.90;;;;;;5023991;28;20164;-59
2023/07/15 07:15:47;;;;;;;4.35;2.80;;;22.30;99.90;;;;;;5023076;28;20513;-58
2023/07/15 07:18:13;;;;;;;5.13;2.58;;;22.40;99.90;;;;;;5057706;28;20059;-59
2023/07/15 07:20:39;;;;;;;7.40;2.45;;;22.50;99.90;;;;;;5023502;28;20611;-59
2023/07/15 07:23:05;;;;;;;4.40;2.55;;;22.50;99.90;;;;;;5023011;28;20044;-59
2023/07/15 07:25:31;;;;;;;4.25;2.25;;;22.50;99.90;;;;;;5046455;28;20496;-59
2023/07/15 07:27:57;;;;;;;6.18;2.75;;;22.50;99.90;;;;;;5023157;28;20691;-59
2023/07/15 07:30:23;;;;;;;5.05;2.95;;;22.50;99.90;;;;;;5036677;28;20133;-59
2023/07/15 07:32:49;;;;;;;4.45;2.28;;;22.60;99.90;;;;;;5036047;28;20072;-59
2023/07/15 07:35:15;;;;;;;7.28;3.25;;;22.60;99.90;;;;;;5052755;28;20531;-60
2023/07/15 07:37:40;;;;;;;4.38;2.42;;;22.50;99.90;;;;;;5000853;28;20044;-60
2023/07/15 07:40:09;;;;;;;5.15;2.47;;;22.60;99.90;;;;;;5018267;28;20051;-59
2023/07/15 07:42:35;;;;;;;5.63;2.33;;;22.70;99.90;;;;;;5045718;28;20049;-59
2023/07/15 07:45:10;;;;;;;4.70;2.28;;;22.70;99.90;;;;;;5063844;28;20042;-60
2023/07/15 07:47:36;;;;;;;6.95;2.75;;;22.70;99.90;;;;;;5049139;28;20233;-60
2023/07/15 07:50:02;;;;;;;6.53;2.95;;;22.80;99.90;;;;;;5063673;28;20351;-60
2023/07/15 07:52:28;;;;;;;4.38;2.10;;;22.90;99.90;;;;;;5054541;28;20040;-60
2023/07/15 07:54:53;;;;;;;5.75;3.25;;;23.00;99.90;;;;;;5050541;28;20041;-60
2023/07/15 07:57:19;;;;;;;3.75;1.90;;;23.00;99.90;;;;;;5032812;28;20126;-60
2023/07/15 07:59:44;;;;;;;3.85;1.73;;;23.00;99.90;;;;;;5028992;28;20037;-59
2023/07/15 08:02:10;;;;;;;4.03;1.98;;;23.10;99.90;;;;;;5048502;28;20041;-59
2023/07/15 08:04:36;;;;;;;3.83;2.00;;;23.20;99.90;;;;;;5025058;28;20041;-59
2023/07/15 08:07:02;;;;;;;3.70;2.00;;;23.20;99.90;;;;;;5048783;28;20068;-59
2023/07/15 08:09:27;;;;;;;6.30;2.35;;;23.20;99.90;;;;;;5032796;28;20044;-58
2023/07/15 08:11:53;;;;;;;4.50;2.20;;;23.20;99.90;;;;;;5032824;28;20399;-59
2023/07/15 08:14:19;;;;;;;4.07;2.00;;;23.30;99.90;;;;;;5042902;28;20059;-59
2023/07/15 08:16:44;;;;;;;3.90;2.50;;;23.40;99.90;;;;;;5048067;28;20052;-60
2023/07/15 08:19:10;;;;;;;3.90;2.03;;;23.30;99.90;;;;;;5032866;28;20044;-61
2023/07/15 08:21:36;;;;;;;3.78;2.10;;;23.40;99.90;;;;;;5047402;28;20233;-61
2023/07/15 08:24:02;;;;;;;4.57;1.95;;;23.40;99.90;;;;;;5025231;28;20048;-60
2023/07/15 08:26:28;;;;;;;3.63;1.92;;;23.60;99.90;;;;;;5042527;28;20053;-61
2023/07/15 08:28:58;;;;;;;4.43;1.60;;;23.70;99.90;;;;;;5047477;28;20044;-60
2023/07/15 08:31:24;;;;;;;5.38;2.20;;;23.80;99.90;;;;;;5052864;28;20506;-59
2023/07/15 08:33:51;;;;;;;6.32;2.08;;;23.80;99.90;;;;;;5067356;28;20036;-59
2023/07/15 08:36:16;;;;;;;3.60;1.70;;;23.70;99.90;;;;;;5041908;28;20388;-59
2023/07/15 08:38:42;;;;;;;4.22;1.63;;;23.80;99.90;;;;;;5064445;28;20051;-59
2023/07/15 08:41:10;;;;;;;3.47;1.70;;;23.90;99.90;;;;;;5049778;28;20507;-59
2023/07/15 08:43:36;;;;;;;3.13;1.50;;;24.00;99.90;;;;;;5048538;28;20041;-59
2023/07/15 08:46:25;;;;;;;4.93;2.55;;;24.00;99.90;;;;;;5043831;28;20495;-59
2023/07/15 08:48:51;;;;;;;4.13;1.90;;;24.10;99.90;;;;;;5050378;28;20040;-58
2023/07/15 08:51:20;;;;;;;5.88;1.60;;;24.20;99.90;;;;;;5060857;28;20415;-58
2023/07/15 08:53:46;;;;;;;5.05;1.92;;;24.20;99.90;;;;;;5051593;28;20119;-58
2023/07/15 08:56:13;;;;;;;5.25;1.50;;;24.30;99.90;;;;;;5043278;28;20044;-58
2023/07/15 08:58:39;;;;;;;3.38;1.75;;;24.30;99.90;;;;;;5055860;28;20041;-58
2023/07/15 09:01:07;;;;;;;4.63;1.55;;;24.40;99.90;;;;;;5054738;28;20043;-57
2023/07/15 09:03:33;;;;;;;3.20;1.10;;;24.30;99.90;;;;;;5047059;28;20400;-57
2023/07/15 09:06:00;;;;;;;3.88;1.65;;;24.30;99.90;;;;;;5046684;28;20044;-58
2023/07/15 09:08:29;;;;;;;4.75;1.73;;;24.30;99.50;;;;;;5046863;28;20082;-58
2023/07/15 09:10:57;;;;;;;4.07;1.65;;;24.30;99.60;;;;;;5029590;28;20517;-59
2023/07/15 09:13:29;;;;;;;3.38;1.70;;;24.40;99.60;;;;;;5031511;28;20054;-58
2023/07/15 09:15:57;;;;;;;2.20;1.50;;;24.50;99.20;;;;;;5033358;28;20041;-59
2023/07/15 09:18:24;;;;;;;5.07;1.83;;;24.50;98.80;;;;;;5064610;28;20633;-58
2023/07/15 09:20:50;;;;;;;3.45;1.48;;;24.40;98.50;;;;;;5020510;28;20043;-58
2023/07/15 09:23:16;;;;;;;3.38;1.77;;;24.40;98.20;;;;;;5046394;28;20041;-58
2023/07/15 09:25:52;;;;;;;4.43;1.70;;;24.50;98.30;;;;;;5048532;28;20052;-58
2023/07/15 09:28:19;;;;;;;5.90;1.83;;;24.50;98.40;;;;;;5062264;28;20071;-59
2023/07/15 09:30:45;;;;;;;6.35;1.60;;;24.60;98.40;;;;;;5034727;28;20047;-59
2023/07/15 09:33:47;;;;;;;3.65;1.58;;;24.50;98.30;;;;;;5029362;28;20067;-58
2023/07/15 09:36:12;;;;;;;2.97;1.48;;;24.80;98.40;;;;;;4979694;28;20070;-59
2023/07/15 09:38:39;;;;;;;3.65;1.90;;;24.90;98.30;;;;;;5017145;28;20084;-58
2023/07/15 09:41:08;;;;;;;2.55;1.23;;;25.00;98.00;;;;;;5032696;28;20040;-59
2023/07/15 09:43:45;;;;;;;2.30;1.55;;;24.90;97.60;;;;;;5064386;28;20107;-58
2023/07/15 09:46:16;;;;;;;3.05;1.70;;;25.00;97.30;;;;;;5043857;28;20090;-59
2023/07/15 09:48:43;;;;;;;3.28;1.40;;;25.10;97.40;;;;;;5045399;28;20040;-57
2023/07/15 09:51:14;;;;;;;2.17;1.27;;;25.10;96.90;;;;;;5048300;28;20028;-59
2023/07/15 09:53:49;;;;;;;3.50;1.67;;;25.10;97.00;;;;;;5046826;28;20043;-57
2023/07/15 09:56:43;;;;;;;6.32;1.63;;;25.20;96.90;;;;;;5043934;28;20044;-59
2023/07/15 09:59:34;;;;;;;2.78;1.40;;;25.00;95.70;;;;;;5040748;28;20048;-59
2023/07/15 10:02:05;;;;;;;2.75;1.73;;;24.80;96.00;;;;;;5042718;28;20190;-59
2023/07/15 10:04:33;;;;;;;3.42;1.38;;;24.70;96.60;;;;;;5058423;28;20043;-58
2023/07/15 10:07:01;;;;;;;3.80;1.55;;;24.70;96.50;;;;;;5046867;28;20413;-59
2023/07/15 10:09:27;;;;;;;3.53;1.80;;;24.60;95.90;;;;;;5059900;28;20063;-57
2023/07/15 10:11:54;;;;;;;3.17;1.60;;;24.60;96.20;;;;;;5030704;28;20323;-59
2023/07/15 10:14:21;;;;;;;2.90;1.40;;;24.60;96.10;;;;;;5036059;28;20119;-59
2023/07/15 10:17:11;;;;;;;2.78;1.45;;;24.60;96.00;;;;;;5066146;28;20040;-59
2023/07/15 10:19:47;;;;;;;4.57;1.92;;;24.80;95.80;;;;;;5046255;28;20415;-57
2023/07/15 10:22:16;;;;;;;3.05;1.58;;;24.90;96.00;;;;;;5044483;28;20036;-59
2023/07/15 10:24:43;;;;;;;5.05;2.00;;;25.10;96.20;;;;;;5057520;28;20582;-59
2023/07/15 10:27:11;;;;;;;3.28;1.52;;;25.30;96.20;;;;;;5048954;28;20094;-58
2023/07/15 10:29:38;;;;;;;3.78;1.60;;;25.40;96.50;;;;;;5054180;28;20449;-58
2023/07/15 10:32:15;;;;;;;3.45;1.80;;;25.60;96.40;;;;;;5048844;28;20032;-58
2023/07/15 10:34:46;;;;;;;4.30;1.60;;;25.70;96.30;;;;;;5046161;28;20040;-59
2023/07/15 10:37:14;;;;;;;2.75;1.55;;;25.90;96.50;;;;;;5061272;28;20044;-58
2023/07/15 10:39:40;;;;;;;2.80;1.67;;;26.00;96.00;;;;;;5048811;28;20048;-59
2023/07/15 10:42:16;;;;;;;3.83;1.52;;;26.10;96.30;;;;;;5046597;28;20502;-59
2023/07/15 10:44:52;;;;;;;3.72;1.90;;;26.10;96.10;;;;;;5043762;28;20084;-59
2023/07/15 10:47:19;;;;;;;4.50;1.50;;;26.00;96.00;;;;;;5046126;28;20465;-59
2023/07/15 10:49:45;;;;;;;2.83;1.50;;;25.80;96.50;;;;;;5050553;28;20238;-58
2023/07/15 10:52:16;;;;;;;2.38;1.50;;;25.80;96.60;;;;;;5005672;28;20070;-59
2023/07/15 10:54:42;;;;;;;3.83;1.73;;;25.80;96.70;;;;;;5038494;28;20047;-59
2023/07/15 10:57:12;;;;;;;4.05;1.52;;;25.70;96.80;;;;;;5038938;28;20056;-58
2023/07/15 10:59:43;;;;;;;2.85;1.65;;;25.70;96.90;;;;;;5058736;28;20105;-59
2023/07/15 11:02:10;;;;;;;4.35;1.40;;;25.40;96.70;;;;;;5043173;28;20411;-59
2023/07/15 11:04:37;;;;;;;3.47;1.27;;;25.40;96.90;;;;;;5044017;28;20057;-59
2023/07/15 11:07:05;;;;;;;2.40;1.23;;;25.50;97.20;;;;;;5045103;28;20044;-59
2023/07/15 11:09:32;;;;;;;4.22;1.50;;;25.50;97.00;;;;;;5044656;28;20045;-59
2023/07/15 11:11:57;;;;;;;2.95;1.63;;;25.70;97.00;;;;;;5064856;28;20506;-58
2023/07/15 11:14:28;;;;;;;4.47;1.67;;;25.80;96.70;;;;;;5030657;28;20040;-59
2023/07/15 11:17:02;;;;;;;3.20;1.15;;;25.80;96.50;;;;;;5020863;28;20055;-59
2023/07/15 11:19:28;;;;;;;2.55;1.20;;;25.80;96.70;;;;;;5024471;28;20123;-59
2023/07/15 11:21:55;;;;;;;2.60;1.40;;;25.70;96.70;;;;;;5030672;28;20040;-58
2023/07/15 11:24:22;;;;;;;2.75;1.20;;;25.60;96.90;;;;;;5036232;28;20052;-59
2023/07/15 11:26:52;;;;;;;4.20;1.17;;;25.50;96.70;;;;;;5036306;28;20069;-59
2023/07/15 11:29:21;;;;;;;3.63;1.30;;;25.40;96.80;;;;;;5047371;28;20036;-58
2023/07/15 11:31:49;;;;;;;3.70;1.30;;;25.50;97.10;;;;;;5064034;28;20334;-58
2023/07/15 11:34:16;;;;;;;3.78;1.45;;;25.60;97.10;;;;;;5033002;28;20047;-58
2023/07/15 11:36:43;;;;;;;2.72;1.33;;;25.70;97.00;;;;;;5035525;28;20627;-59
2023/07/15 11:39:10;;;;;;;2.33;1.27;;;25.80;97.00;;;;;;5044570;28;20485;-59
2023/07/15 11:41:37;;;;;;;4.43;1.30;;;25.80;96.50;;;;;;5030767;28;20036;-59
2023/07/15 11:44:15;;;;;;;3.15;1.75;;;25.90;96.50;;;;;;5051131;28;20367;-58
2023/07/15 11:46:44;;;;;;;4.75;1.80;;;26.10;96.60;;;;;;5050435;28;20035;-59
2023/07/15 11:49:10;;;;;;;2.55;1.30;;;26.10;96.30;;;;;;5050071;28;20136;-59
2023/07/15 11:51:45;;;;;;;2.47;1.35;;;26.00;96.30;;;;;;5047137;28;20072;-59
2023/07/15 11:54:12;;;;;;;3.75;1.60;;;25.90;96.50;;;;;;5064607;28;20090;-59
2023/07/15 11:56:46;;;;;;;2.78;1.23;;;26.00;96.60;;;;;;5039687;28;20040;-59
2023/07/15 11:59:12;;;;;;;;;;;26.00;96.60;;;;;;5048671;28;20542;-58
2023/07/15 12:01:40;;;;;;;5.15;1.83;;;26.10;96.80;;;;;;5048533;28;19920;-59
2023/07/15 12:04:16;;;;;;;3.33;1.40;;;26.00;96.40;;;;;;5059015;28;20080;-59
2023/07/15 12:06:52;;;;;;;2.22;1.45;;;26.20;96.50;;;;;;5042483;28;20087;-58
2023/07/15 12:09:20;;;;;;;4.40;1.60;;;26.50;96.50;;;;;;5051065;28;20133;-59
2023/07/15 12:11:46;;;;;;;3.08;1.50;;;26.60;96.30;;;;;;5068468;28;20074;-59
2023/07/15 12:14:13;;;;;;;3.05;1.67;;;26.70;96.00;;;;;;5047569;28;20028;-59
2023/07/15 12:16:40;;;;;;;3.03;2.00;;;26.60;95.60;;;;;;5050740;28;20060;-59
2023/07/15 12:19:16;;;;;;;2.70;1.83;;;26.50;95.50;;;;;;5048773;28;20508;-58
2023/07/15 12:21:42;;;;;;;2.35;1.80;;;26.50;95.60;;;;;;5039864;28;20495;-58
2023/07/15 12:24:08;;;;;;;2.25;1.40;;;26.20;95.70;;;;;;5035083;28;20059;-57
2023/07/15 12:26:34;;;;;;;3.78;1.90;;;26.20;95.90;;;;;;5052365;28;20044;-57
2023/07/15 12:29:00;;;;;;;2.10;1.30;;;26.10;95.90;;;;;;5027777;28;20028;-59
2023/07/15 12:31:26;;;;;;;2.97;2.00;;;25.90;95.90;;;;;;5051080;28;20131;-59
2023/07/15 12:33:51;;;;;;;4.18;1.80;;;25.80;95.70;;;;;;5067176;28;20040;-59
2023/07/15 12:36:17;;;;;;;3.10;1.58;;;25.80;95.90;;;;;;5057832;28;20485;-59
2023/07/15 12:38:44;;;;;;;3.90;1.60;;;25.90;95.90;;;;;;5030949;28;20508;-58
2023/07/15 12:41:11;;;;;;;3.30;1.83;;;25.90;96.10;;;;;;5030958;28;20056;-59
2023/07/15 12:43:38;;;;;;;4.75;1.90;;;26.00;95.90;;;;;;5046389;28;20171;-59
2023/07/15 12:46:05;;;;;;;4.72;1.95;;;26.10;96.10;;;;;;5044533;28;20090;-58
2023/07/15 12:48:31;;;;;;;2.90;1.52;;;26.30;96.00;;;;;;5031001;28;20310;-58
2023/07/15 12:50:57;;;;;;;3.50;1.83;;;26.40;95.90;;;;;;5047949;28;20123;-58